sensor_id;sensor_type;location;lat;lon;timestamp;P1;durP1;ratioP1;P2;durP2;ratioP2
56830;SDS011;42713;42.676;23.352;2023-06-05T00:00:47;24.52;;;18.63;;
56830;SDS011;42713;42.676;23.352;2023-06-05T00:03:14;21.92;;;14.50;;
56830;SDS011;42713;42.676;23.352;2023-06-05T00:05:39;24.13;;;13.50;;
56830;SDS011;42713;42.676;23.352;2023-06-05T00:08:05;18.38;;;12.13;;
56830;SDS011;42713;42.676;23.352;2023-06-05T00:10:30;23.13;;;12.23;;
56830;SDS011;42713;42.676;23.352;2023-06-05T00:12:56;18.10;;;11.45;;
56830;SDS011;42713;42.676;23.352;2023-06-05T00:15:22;16.73;;;11.45;;
56830;SDS011;42713;42.676;23.352;2023-06-05T00:17:48;16.25;;;11.25;;
56830;SDS011;42713;42.676;23.352;2023-06-05T00:20:13;23.20;;;10.77;;
56830;SDS011;42713;42.676;23.352;2023-06-05T00:22:38;17.67;;;10.52;;
56830;SDS011;42713;42.676;23.352;2023-06-05T00:25:04;14.90;;;10.80;;
56830;SDS011;42713;42.676;23.352;2023-06-05T00:27:31;14.00;;;10.15;;
56830;SDS011;42713;42.676;23.352;2023-06-05T00:29:56;19.83;;;11.35;;
56830;SDS011;42713;42.676;23.352;2023-06-05T00:32:22;18.55;;;11.07;;
56830;SDS011;42713;42.676;23.352;2023-06-05T00:34:47;16.90;;;11.00;;
56830;SDS011;42713;42.676;23.352;2023-06-05T00:37:15;15.63;;;10.23;;
56830;SDS011;42713;42.676;23.352;2023-06-05T00:39:40;20.30;;;10.63;;
56830;SDS011;42713;42.676;23.352;2023-06-05T00:42:06;16.42;;;11.07;;
56830;SDS011;42713;42.676;23.352;2023-06-05T00:44:33;17.10;;;10.85;;
56830;SDS011;42713;42.676;23.352;2023-06-05T00:46:59;14.52;;;9.90;;
56830;SDS011;42713;42.676;23.352;2023-06-05T00:49:26;16.40;;;9.73;;
56830;SDS011;42713;42.676;23.352;2023-06-05T00:51:52;14.25;;;8.88;;
56830;SDS011;42713;42.676;23.352;2023-06-05T00:54:17;16.75;;;10.18;;
56830;SDS011;42713;42.676;23.352;2023-06-05T00:56:43;14.93;;;9.63;;
56830;SDS011;42713;42.676;23.352;2023-06-05T00:59:09;14.68;;;9.98;;
56830;SDS011;42713;42.676;23.352;2023-06-05T01:01:37;20.02;;;9.38;;
56830;SDS011;42713;42.676;23.352;2023-06-05T01:04:03;15.23;;;9.05;;
56830;SDS011;42713;42.676;23.352;2023-06-05T01:06:29;11.98;;;8.68;;
56830;SDS011;42713;42.676;23.352;2023-06-05T01:09:03;15.45;;;8.60;;
56830;SDS011;42713;42.676;23.352;2023-06-05T01:11:50;13.77;;;9.10;;
56830;SDS011;42713;42.676;23.352;2023-06-05T01:14:33;16.17;;;9.48;;
56830;SDS011;42713;42.676;23.352;2023-06-05T01:17:01;13.38;;;9.10;;
56830;SDS011;42713;42.676;23.352;2023-06-05T01:19:27;14.13;;;9.73;;
56830;SDS011;42713;42.676;23.352;2023-06-05T01:21:58;14.70;;;9.45;;
56830;SDS011;42713;42.676;23.352;2023-06-05T01:24:24;14.60;;;9.38;;
56830;SDS011;42713;42.676;23.352;2023-06-05T01:32:23;16.35;;;9.07;;
56830;SDS011;42713;42.676;23.352;2023-06-05T01:34:54;15.80;;;9.75;;
56830;SDS011;42713;42.676;23.352;2023-06-05T01:37:21;18.42;;;9.63;;
56830;SDS011;42713;42.676;23.352;2023-06-05T01:39:50;13.23;;;9.07;;
56830;SDS011;42713;42.676;23.352;2023-06-05T01:42:18;14.57;;;8.70;;
56830;SDS011;42713;42.676;23.352;2023-06-05T01:44:44;11.95;;;8.60;;
56830;SDS011;42713;42.676;23.352;2023-06-05T01:47:10;11.68;;;7.85;;
56830;SDS011;42713;42.676;23.352;2023-06-05T01:49:37;16.33;;;9.35;;
56830;SDS011;42713;42.676;23.352;2023-06-05T01:52:02;14.90;;;8.70;;
56830;SDS011;42713;42.676;23.352;2023-06-05T01:54:28;13.18;;;8.52;;
56830;SDS011;42713;42.676;23.352;2023-06-05T01:56:54;13.90;;;8.85;;
56830;SDS011;42713;42.676;23.352;2023-06-05T01:59:20;14.70;;;8.63;;
56830;SDS011;42713;42.676;23.352;2023-06-05T02:01:46;13.57;;;8.27;;
56830;SDS011;42713;42.676;23.352;2023-06-05T02:04:12;11.45;;;8.15;;
56830;SDS011;42713;42.676;23.352;2023-06-05T02:06:44;16.75;;;8.65;;
56830;SDS011;42713;42.676;23.352;2023-06-05T02:09:10;13.68;;;8.48;;
56830;SDS011;42713;42.676;23.352;2023-06-05T02:11:36;15.48;;;8.57;;
56830;SDS011;42713;42.676;23.352;2023-06-05T02:14:03;15.50;;;8.05;;
56830;SDS011;42713;42.676;23.352;2023-06-05T02:16:30;15.38;;;9.02;;
56830;SDS011;42713;42.676;23.352;2023-06-05T02:18:56;14.07;;;8.30;;
56830;SDS011;42713;42.676;23.352;2023-06-05T02:21:28;13.52;;;9.30;;
56830;SDS011;42713;42.676;23.352;2023-06-05T02:23:55;15.38;;;7.72;;
56830;SDS011;42713;42.676;23.352;2023-06-05T02:26:23;11.55;;;8.18;;
56830;SDS011;42713;42.676;23.352;2023-06-05T02:28:48;15.52;;;8.02;;
56830;SDS011;42713;42.676;23.352;2023-06-05T02:31:14;11.95;;;7.97;;
56830;SDS011;42713;42.676;23.352;2023-06-05T02:33:41;15.43;;;8.85;;
56830;SDS011;42713;42.676;23.352;2023-06-05T02:36:07;17.35;;;9.98;;
56830;SDS011;42713;42.676;23.352;2023-06-05T02:38:33;17.92;;;11.10;;
56830;SDS011;42713;42.676;23.352;2023-06-05T02:40:58;18.35;;;11.02;;
56830;SDS011;42713;42.676;23.352;2023-06-05T02:43:24;15.45;;;10.90;;
56830;SDS011;42713;42.676;23.352;2023-06-05T02:45:50;16.70;;;11.07;;
56830;SDS011;42713;42.676;23.352;2023-06-05T02:48:16;12.63;;;7.50;;
56830;SDS011;42713;42.676;23.352;2023-06-05T02:50:41;12.00;;;8.65;;
56830;SDS011;42713;42.676;23.352;2023-06-05T02:53:06;18.48;;;10.98;;
56830;SDS011;42713;42.676;23.352;2023-06-05T02:55:32;17.23;;;11.20;;
56830;SDS011;42713;42.676;23.352;2023-06-05T02:57:58;15.82;;;9.88;;
56830;SDS011;42713;42.676;23.352;2023-06-05T03:00:23;17.90;;;10.45;;
56830;SDS011;42713;42.676;23.352;2023-06-05T03:02:50;16.15;;;10.00;;
56830;SDS011;42713;42.676;23.352;2023-06-05T03:05:16;14.80;;;10.80;;
56830;SDS011;42713;42.676;23.352;2023-06-05T03:07:50;17.42;;;9.95;;
56830;SDS011;42713;42.676;23.352;2023-06-05T03:10:19;15.57;;;10.93;;
56830;SDS011;42713;42.676;23.352;2023-06-05T03:12:45;18.33;;;10.18;;
56830;SDS011;42713;42.676;23.352;2023-06-05T03:15:11;20.13;;;9.32;;
56830;SDS011;42713;42.676;23.352;2023-06-05T03:17:37;16.20;;;10.52;;
56830;SDS011;42713;42.676;23.352;2023-06-05T03:20:03;16.15;;;10.32;;
56830;SDS011;42713;42.676;23.352;2023-06-05T03:22:29;17.75;;;10.55;;
56830;SDS011;42713;42.676;23.352;2023-06-05T03:24:55;17.13;;;10.43;;
56830;SDS011;42713;42.676;23.352;2023-06-05T03:27:20;20.83;;;10.60;;
56830;SDS011;42713;42.676;23.352;2023-06-05T03:29:46;23.58;;;11.30;;
56830;SDS011;42713;42.676;23.352;2023-06-05T03:32:12;17.17;;;9.95;;
56830;SDS011;42713;42.676;23.352;2023-06-05T03:34:37;21.05;;;11.25;;
56830;SDS011;42713;42.676;23.352;2023-06-05T03:37:03;19.30;;;11.27;;
56830;SDS011;42713;42.676;23.352;2023-06-05T03:39:29;17.58;;;11.13;;
56830;SDS011;42713;42.676;23.352;2023-06-05T03:41:54;21.75;;;11.27;;
56830;SDS011;42713;42.676;23.352;2023-06-05T03:44:20;18.58;;;11.27;;
56830;SDS011;42713;42.676;23.352;2023-06-05T03:46:46;16.95;;;10.30;;
56830;SDS011;42713;42.676;23.352;2023-06-05T03:49:11;22.52;;;10.55;;
56830;SDS011;42713;42.676;23.352;2023-06-05T03:51:37;20.02;;;11.10;;
56830;SDS011;42713;42.676;23.352;2023-06-05T03:54:04;19.65;;;11.30;;
56830;SDS011;42713;42.676;23.352;2023-06-05T03:56:30;18.50;;;10.75;;
56830;SDS011;42713;42.676;23.352;2023-06-05T03:59:00;14.57;;;10.45;;
56830;SDS011;42713;42.676;23.352;2023-06-05T04:01:37;17.83;;;11.15;;
56830;SDS011;42713;42.676;23.352;2023-06-05T04:04:06;17.35;;;11.15;;
56830;SDS011;42713;42.676;23.352;2023-06-05T04:06:33;21.77;;;11.40;;
56830;SDS011;42713;42.676;23.352;2023-06-05T04:08:59;17.77;;;10.40;;
56830;SDS011;42713;42.676;23.352;2023-06-05T04:11:25;18.55;;;11.07;;
56830;SDS011;42713;42.676;23.352;2023-06-05T04:13:55;19.52;;;10.85;;
56830;SDS011;42713;42.676;23.352;2023-06-05T04:16:21;18.73;;;10.68;;
56830;SDS011;42713;42.676;23.352;2023-06-05T04:18:47;15.65;;;11.40;;
56830;SDS011;42713;42.676;23.352;2023-06-05T04:21:12;16.75;;;10.30;;
56830;SDS011;42713;42.676;23.352;2023-06-05T04:23:38;16.33;;;10.38;;
56830;SDS011;42713;42.676;23.352;2023-06-05T04:26:03;16.50;;;10.25;;
56830;SDS011;42713;42.676;23.352;2023-06-05T04:28:30;22.55;;;11.07;;
56830;SDS011;42713;42.676;23.352;2023-06-05T04:30:56;20.27;;;11.02;;
56830;SDS011;42713;42.676;23.352;2023-06-05T04:33:21;22.45;;;11.07;;
56830;SDS011;42713;42.676;23.352;2023-06-05T04:35:47;16.15;;;10.73;;
56830;SDS011;42713;42.676;23.352;2023-06-05T04:38:12;15.48;;;10.57;;
56830;SDS011;42713;42.676;23.352;2023-06-05T04:40:37;17.67;;;11.40;;
56830;SDS011;42713;42.676;23.352;2023-06-05T04:43:03;16.15;;;10.48;;
56830;SDS011;42713;42.676;23.352;2023-06-05T04:45:29;19.15;;;11.00;;
56830;SDS011;42713;42.676;23.352;2023-06-05T04:47:54;18.17;;;10.90;;
56830;SDS011;42713;42.676;23.352;2023-06-05T04:50:24;18.63;;;11.60;;
56830;SDS011;42713;42.676;23.352;2023-06-05T04:52:51;15.48;;;9.43;;
56830;SDS011;42713;42.676;23.352;2023-06-05T04:55:18;18.92;;;10.73;;
56830;SDS011;42713;42.676;23.352;2023-06-05T04:57:45;21.75;;;11.95;;
56830;SDS011;42713;42.676;23.352;2023-06-05T05:00:11;18.10;;;9.85;;
56830;SDS011;42713;42.676;23.352;2023-06-05T05:02:37;21.48;;;11.15;;
56830;SDS011;42713;42.676;23.352;2023-06-05T05:05:02;19.63;;;11.32;;
56830;SDS011;42713;42.676;23.352;2023-06-05T05:07:29;19.33;;;12.07;;
56830;SDS011;42713;42.676;23.352;2023-06-05T05:09:55;18.98;;;11.43;;
56830;SDS011;42713;42.676;23.352;2023-06-05T05:12:21;19.98;;;10.27;;
56830;SDS011;42713;42.676;23.352;2023-06-05T05:14:46;17.92;;;11.25;;
56830;SDS011;42713;42.676;23.352;2023-06-05T05:17:11;17.48;;;11.93;;
56830;SDS011;42713;42.676;23.352;2023-06-05T05:19:39;21.15;;;12.18;;
56830;SDS011;42713;42.676;23.352;2023-06-05T05:22:06;24.13;;;12.45;;
56830;SDS011;42713;42.676;23.352;2023-06-05T05:24:31;24.88;;;12.05;;
56830;SDS011;42713;42.676;23.352;2023-06-05T05:26:57;20.05;;;12.95;;
56830;SDS011;42713;42.676;23.352;2023-06-05T05:29:22;19.13;;;11.50;;
56830;SDS011;42713;42.676;23.352;2023-06-05T05:31:48;18.58;;;11.80;;
56830;SDS011;42713;42.676;23.352;2023-06-05T05:34:13;24.40;;;12.43;;
56830;SDS011;42713;42.676;23.352;2023-06-05T05:36:39;21.75;;;12.50;;
56830;SDS011;42713;42.676;23.352;2023-06-05T05:39:04;18.52;;;12.85;;
56830;SDS011;42713;42.676;23.352;2023-06-05T05:41:30;20.98;;;11.77;;
56830;SDS011;42713;42.676;23.352;2023-06-05T05:43:55;18.25;;;12.93;;
56830;SDS011;42713;42.676;23.352;2023-06-05T05:46:21;17.42;;;12.35;;
56830;SDS011;42713;42.676;23.352;2023-06-05T05:48:46;23.33;;;12.48;;
56830;SDS011;42713;42.676;23.352;2023-06-05T05:51:12;18.58;;;12.65;;
56830;SDS011;42713;42.676;23.352;2023-06-05T05:53:37;19.23;;;12.00;;
56830;SDS011;42713;42.676;23.352;2023-06-05T05:56:03;20.38;;;12.30;;
56830;SDS011;42713;42.676;23.352;2023-06-05T05:58:29;21.27;;;12.82;;
56830;SDS011;42713;42.676;23.352;2023-06-05T06:00:55;19.98;;;12.98;;
56830;SDS011;42713;42.676;23.352;2023-06-05T06:03:21;22.02;;;13.40;;
56830;SDS011;42713;42.676;23.352;2023-06-05T06:05:48;23.98;;;12.30;;
56830;SDS011;42713;42.676;23.352;2023-06-05T06:08:18;20.80;;;13.02;;
56830;SDS011;42713;42.676;23.352;2023-06-05T06:10:43;22.60;;;13.95;;
56830;SDS011;42713;42.676;23.352;2023-06-05T06:13:10;23.38;;;13.57;;
56830;SDS011;42713;42.676;23.352;2023-06-05T06:15:36;21.42;;;12.50;;
56830;SDS011;42713;42.676;23.352;2023-06-05T06:18:06;17.50;;;12.10;;
56830;SDS011;42713;42.676;23.352;2023-06-05T06:20:32;17.30;;;12.45;;
56830;SDS011;42713;42.676;23.352;2023-06-05T06:23:01;17.77;;;11.98;;
56830;SDS011;42713;42.676;23.352;2023-06-05T06:25:28;18.15;;;12.38;;
56830;SDS011;42713;42.676;23.352;2023-06-05T06:28:00;20.92;;;11.98;;
56830;SDS011;42713;42.676;23.352;2023-06-05T06:30:26;20.85;;;12.90;;
56830;SDS011;42713;42.676;23.352;2023-06-05T06:32:56;20.35;;;12.52;;
56830;SDS011;42713;42.676;23.352;2023-06-05T06:35:23;18.38;;;13.55;;
56830;SDS011;42713;42.676;23.352;2023-06-05T06:37:52;18.13;;;12.88;;
56830;SDS011;42713;42.676;23.352;2023-06-05T06:40:19;22.02;;;12.93;;
56830;SDS011;42713;42.676;23.352;2023-06-05T06:42:46;23.50;;;13.60;;
56830;SDS011;42713;42.676;23.352;2023-06-05T06:45:13;21.15;;;13.82;;
56830;SDS011;42713;42.676;23.352;2023-06-05T06:47:40;24.63;;;14.63;;
56830;SDS011;42713;42.676;23.352;2023-06-05T06:50:06;19.38;;;13.35;;
56830;SDS011;42713;42.676;23.352;2023-06-05T06:52:32;18.70;;;13.68;;
56830;SDS011;42713;42.676;23.352;2023-06-05T06:54:57;23.00;;;15.10;;
56830;SDS011;42713;42.676;23.352;2023-06-05T06:57:23;22.17;;;14.85;;
56830;SDS011;42713;42.676;23.352;2023-06-05T06:59:48;26.70;;;15.85;;
56830;SDS011;42713;42.676;23.352;2023-06-05T07:02:14;23.60;;;15.55;;
56830;SDS011;42713;42.676;23.352;2023-06-05T07:04:42;26.05;;;16.88;;
56830;SDS011;42713;42.676;23.352;2023-06-05T07:07:09;25.60;;;16.17;;
56830;SDS011;42713;42.676;23.352;2023-06-05T07:09:36;22.05;;;15.15;;
56830;SDS011;42713;42.676;23.352;2023-06-05T07:12:02;22.52;;;14.60;;
56830;SDS011;42713;42.676;23.352;2023-06-05T07:14:30;26.55;;;15.82;;
56830;SDS011;42713;42.676;23.352;2023-06-05T07:16:59;25.48;;;17.30;;
56830;SDS011;42713;42.676;23.352;2023-06-05T07:19:29;22.83;;;15.20;;
56830;SDS011;42713;42.676;23.352;2023-06-05T07:21:56;26.20;;;17.17;;
56830;SDS011;42713;42.676;23.352;2023-06-05T07:24:23;24.58;;;16.02;;
56830;SDS011;42713;42.676;23.352;2023-06-05T07:26:53;23.75;;;17.50;;
56830;SDS011;42713;42.676;23.352;2023-06-05T07:29:20;26.65;;;17.92;;
56830;SDS011;42713;42.676;23.352;2023-06-05T07:31:53;39.10;;;17.20;;
56830;SDS011;42713;42.676;23.352;2023-06-05T07:34:21;26.10;;;16.08;;
56830;SDS011;42713;42.676;23.352;2023-06-05T07:36:48;24.25;;;16.15;;
56830;SDS011;42713;42.676;23.352;2023-06-05T07:39:17;32.08;;;16.52;;
56830;SDS011;42713;42.676;23.352;2023-06-05T07:41:44;24.85;;;15.13;;
56830;SDS011;42713;42.676;23.352;2023-06-05T07:44:11;29.52;;;15.63;;
56830;SDS011;42713;42.676;23.352;2023-06-05T07:46:39;24.38;;;15.70;;
56830;SDS011;42713;42.676;23.352;2023-06-05T07:49:05;26.77;;;15.90;;
56830;SDS011;42713;42.676;23.352;2023-06-05T07:51:31;25.60;;;16.45;;
56830;SDS011;42713;42.676;23.352;2023-06-05T07:54:07;25.65;;;16.17;;
56830;SDS011;42713;42.676;23.352;2023-06-05T07:56:34;24.52;;;15.07;;
56830;SDS011;42713;42.676;23.352;2023-06-05T07:59:01;23.85;;;15.50;;
56830;SDS011;42713;42.676;23.352;2023-06-05T08:01:31;25.00;;;15.82;;
56830;SDS011;42713;42.676;23.352;2023-06-05T08:04:01;21.60;;;14.70;;
56830;SDS011;42713;42.676;23.352;2023-06-05T08:06:32;23.60;;;14.10;;
56830;SDS011;42713;42.676;23.352;2023-06-05T08:09:00;29.45;;;14.90;;
56830;SDS011;42713;42.676;23.352;2023-06-05T08:11:26;38.30;;;15.00;;
56830;SDS011;42713;42.676;23.352;2023-06-05T08:13:53;25.45;;;14.88;;
56830;SDS011;42713;42.676;23.352;2023-06-05T08:16:19;43.95;;;15.15;;
56830;SDS011;42713;42.676;23.352;2023-06-05T08:18:45;273.98;;;25.27;;
56830;SDS011;42713;42.676;23.352;2023-06-05T08:21:12;56.50;;;16.02;;
56830;SDS011;42713;42.676;23.352;2023-06-05T08:23:38;68.15;;;15.30;;
56830;SDS011;42713;42.676;23.352;2023-06-05T08:26:04;29.90;;;14.38;;
56830;SDS011;42713;42.676;23.352;2023-06-05T08:28:39;20.83;;;13.52;;
56830;SDS011;42713;42.676;23.352;2023-06-05T08:31:07;25.38;;;13.40;;
56830;SDS011;42713;42.676;23.352;2023-06-05T08:33:33;20.23;;;12.70;;
56830;SDS011;42713;42.676;23.352;2023-06-05T08:35:59;21.13;;;13.32;;
56830;SDS011;42713;42.676;23.352;2023-06-05T08:38:25;24.40;;;14.15;;
56830;SDS011;42713;42.676;23.352;2023-06-05T08:41:01;24.67;;;13.88;;
56830;SDS011;42713;42.676;23.352;2023-06-05T08:43:36;22.83;;;12.75;;
56830;SDS011;42713;42.676;23.352;2023-06-05T08:46:03;20.58;;;12.73;;
56830;SDS011;42713;42.676;23.352;2023-06-05T08:48:37;23.00;;;11.80;;
56830;SDS011;42713;42.676;23.352;2023-06-05T08:51:06;21.92;;;12.70;;
56830;SDS011;42713;42.676;23.352;2023-06-05T08:53:34;24.83;;;12.77;;
56830;SDS011;42713;42.676;23.352;2023-06-05T08:56:01;20.77;;;12.80;;
56830;SDS011;42713;42.676;23.352;2023-06-05T08:58:27;23.40;;;12.45;;
56830;SDS011;42713;42.676;23.352;2023-06-05T09:00:53;21.73;;;12.75;;
56830;SDS011;42713;42.676;23.352;2023-06-05T09:03:19;18.92;;;12.45;;
56830;SDS011;42713;42.676;23.352;2023-06-05T09:05:46;18.95;;;11.57;;
56830;SDS011;42713;42.676;23.352;2023-06-05T09:08:14;22.48;;;11.07;;
56830;SDS011;42713;42.676;23.352;2023-06-05T09:10:41;21.63;;;11.88;;
56830;SDS011;42713;42.676;23.352;2023-06-05T09:13:06;20.13;;;11.60;;
56830;SDS011;42713;42.676;23.352;2023-06-05T09:15:33;20.08;;;11.45;;
56830;SDS011;42713;42.676;23.352;2023-06-05T09:18:09;31.17;;;11.10;;
56830;SDS011;42713;42.676;23.352;2023-06-05T09:20:40;31.80;;;11.57;;
56830;SDS011;42713;42.676;23.352;2023-06-05T09:23:21;27.85;;;11.60;;
56830;SDS011;42713;42.676;23.352;2023-06-05T09:25:52;18.83;;;10.48;;
56830;SDS011;42713;42.676;23.352;2023-06-05T09:28:19;18.17;;;10.07;;
56830;SDS011;42713;42.676;23.352;2023-06-05T09:33:31;17.67;;;9.97;;
56830;SDS011;42713;42.676;23.352;2023-06-05T09:36:04;46.17;;;11.15;;
56830;SDS011;42713;42.676;23.352;2023-06-05T09:38:34;157.68;;;16.65;;
56830;SDS011;42713;42.676;23.352;2023-06-05T09:41:09;126.03;;;16.50;;
56830;SDS011;42713;42.676;23.352;2023-06-05T09:43:36;38.92;;;10.80;;
56830;SDS011;42713;42.676;23.352;2023-06-05T09:46:06;34.35;;;10.02;;
56830;SDS011;42713;42.676;23.352;2023-06-05T09:48:33;23.40;;;9.70;;
56830;SDS011;42713;42.676;23.352;2023-06-05T09:51:09;24.58;;;10.18;;
56830;SDS011;42713;42.676;23.352;2023-06-05T09:53:36;18.10;;;8.90;;
56830;SDS011;42713;42.676;23.352;2023-06-05T09:56:12;17.33;;;9.38;;
56830;SDS011;42713;42.676;23.352;2023-06-05T09:58:43;17.13;;;8.55;;
56830;SDS011;42713;42.676;23.352;2023-06-05T10:01:12;15.63;;;8.80;;
56830;SDS011;42713;42.676;23.352;2023-06-05T10:03:42;16.75;;;8.80;;
56830;SDS011;42713;42.676;23.352;2023-06-05T10:06:12;18.60;;;9.10;;
56830;SDS011;42713;42.676;23.352;2023-06-05T10:08:39;15.80;;;9.43;;
56830;SDS011;42713;42.676;23.352;2023-06-05T10:11:05;15.63;;;10.05;;
56830;SDS011;42713;42.676;23.352;2023-06-05T10:13:32;21.08;;;9.57;;
56830;SDS011;42713;42.676;23.352;2023-06-05T10:15:59;16.25;;;9.70;;
56830;SDS011;42713;42.676;23.352;2023-06-05T10:18:25;16.55;;;9.82;;
56830;SDS011;42713;42.676;23.352;2023-06-05T10:20:50;15.30;;;9.60;;
56830;SDS011;42713;42.676;23.352;2023-06-05T10:23:18;15.50;;;9.80;;
56830;SDS011;42713;42.676;23.352;2023-06-05T10:25:45;16.70;;;9.23;;
56830;SDS011;42713;42.676;23.352;2023-06-05T10:33:54;16.73;;;10.05;;
56830;SDS011;42713;42.676;23.352;2023-06-05T10:37:01;15.98;;;9.40;;
56830;SDS011;42713;42.676;23.352;2023-06-05T10:39:51;15.10;;;9.70;;
56830;SDS011;42713;42.676;23.352;2023-06-05T10:44:51;19.52;;;10.05;;
56830;SDS011;42713;42.676;23.352;2023-06-05T10:47:47;17.02;;;9.38;;
56830;SDS011;42713;42.676;23.352;2023-06-05T10:50:21;16.60;;;9.45;;
56830;SDS011;42713;42.676;23.352;2023-06-05T10:52:50;14.90;;;8.70;;
56830;SDS011;42713;42.676;23.352;2023-06-05T10:55:17;17.48;;;9.48;;
56830;SDS011;42713;42.676;23.352;2023-06-05T11:00:30;16.27;;;10.55;;
56830;SDS011;42713;42.676;23.352;2023-06-05T11:02:56;17.27;;;8.73;;
56830;SDS011;42713;42.676;23.352;2023-06-05T11:05:22;14.60;;;10.13;;
56830;SDS011;42713;42.676;23.352;2023-06-05T11:07:51;16.60;;;9.65;;
56830;SDS011;42713;42.676;23.352;2023-06-05T11:16:40;13.20;;;8.50;;
56830;SDS011;42713;42.676;23.352;2023-06-05T11:26:57;11.50;;;7.00;;
56830;SDS011;42713;42.676;23.352;2023-06-05T11:29:23;12.65;;;6.93;;
56830;SDS011;42713;42.676;23.352;2023-06-05T11:31:51;11.65;;;7.40;;
56830;SDS011;42713;42.676;23.352;2023-06-05T11:34:17;11.55;;;7.18;;
56830;SDS011;42713;42.676;23.352;2023-06-05T11:36:42;15.65;;;6.68;;
56830;SDS011;42713;42.676;23.352;2023-06-05T11:39:09;14.55;;;7.07;;
56830;SDS011;42713;42.676;23.352;2023-06-05T11:41:37;11.05;;;6.80;;
56830;SDS011;42713;42.676;23.352;2023-06-05T11:44:08;12.30;;;6.93;;
56830;SDS011;42713;42.676;23.352;2023-06-05T11:49:03;11.70;;;7.13;;
56830;SDS011;42713;42.676;23.352;2023-06-05T11:51:32;12.95;;;7.53;;
56830;SDS011;42713;42.676;23.352;2023-06-05T11:53:59;13.43;;;7.65;;
56830;SDS011;42713;42.676;23.352;2023-06-05T11:56:26;14.07;;;8.25;;
56830;SDS011;42713;42.676;23.352;2023-06-05T11:58:53;14.57;;;7.72;;
56830;SDS011;42713;42.676;23.352;2023-06-05T12:01:22;13.88;;;7.60;;
56830;SDS011;42713;42.676;23.352;2023-06-05T12:04:03;12.55;;;7.25;;
56830;SDS011;42713;42.676;23.352;2023-06-05T12:06:30;13.60;;;7.00;;
56830;SDS011;42713;42.676;23.352;2023-06-05T12:09:11;11.20;;;6.60;;
56830;SDS011;42713;42.676;23.352;2023-06-05T12:11:39;11.15;;;5.47;;
56830;SDS011;42713;42.676;23.352;2023-06-05T12:14:05;13.98;;;5.93;;
56830;SDS011;42713;42.676;23.352;2023-06-05T12:19:10;11.43;;;5.65;;
56830;SDS011;42713;42.676;23.352;2023-06-05T12:21:38;11.77;;;6.03;;
56830;SDS011;42713;42.676;23.352;2023-06-05T12:24:04;11.85;;;5.53;;
56830;SDS011;42713;42.676;23.352;2023-06-05T12:26:47;13.55;;;5.57;;
56830;SDS011;42713;42.676;23.352;2023-06-05T12:29:20;13.02;;;5.00;;
56830;SDS011;42713;42.676;23.352;2023-06-05T12:31:47;13.15;;;5.18;;
56830;SDS011;42713;42.676;23.352;2023-06-05T12:34:13;10.52;;;5.15;;
56830;SDS011;42713;42.676;23.352;2023-06-05T12:36:41;8.43;;;4.43;;
56830;SDS011;42713;42.676;23.352;2023-06-05T12:39:14;9.65;;;4.90;;
56830;SDS011;42713;42.676;23.352;2023-06-05T12:41:41;9.80;;;4.45;;
56830;SDS011;42713;42.676;23.352;2023-06-05T12:44:07;14.07;;;4.82;;
56830;SDS011;42713;42.676;23.352;2023-06-05T12:46:33;12.45;;;5.13;;
56830;SDS011;42713;42.676;23.352;2023-06-05T12:49:01;10.68;;;5.45;;
56830;SDS011;42713;42.676;23.352;2023-06-05T12:51:28;9.15;;;4.40;;
56830;SDS011;42713;42.676;23.352;2023-06-05T12:53:54;9.85;;;4.63;;
56830;SDS011;42713;42.676;23.352;2023-06-05T12:56:21;9.75;;;4.70;;
56830;SDS011;42713;42.676;23.352;2023-06-05T12:58:53;10.80;;;4.13;;
56830;SDS011;42713;42.676;23.352;2023-06-05T13:01:20;8.88;;;4.43;;
56830;SDS011;42713;42.676;23.352;2023-06-05T13:03:45;8.73;;;4.78;;
56830;SDS011;42713;42.676;23.352;2023-06-05T13:06:12;9.15;;;4.70;;
56830;SDS011;42713;42.676;23.352;2023-06-05T13:08:37;8.95;;;4.50;;
56830;SDS011;42713;42.676;23.352;2023-06-05T13:11:03;8.32;;;3.80;;
56830;SDS011;42713;42.676;23.352;2023-06-05T13:13:28;7.50;;;3.88;;
56830;SDS011;42713;42.676;23.352;2023-06-05T13:15:55;8.32;;;3.63;;
56830;SDS011;42713;42.676;23.352;2023-06-05T13:18:20;8.18;;;4.10;;
56830;SDS011;42713;42.676;23.352;2023-06-05T13:20:45;7.93;;;4.10;;
56830;SDS011;42713;42.676;23.352;2023-06-05T13:23:11;8.40;;;4.35;;
56830;SDS011;42713;42.676;23.352;2023-06-05T13:25:36;12.00;;;4.63;;
56830;SDS011;42713;42.676;23.352;2023-06-05T13:28:02;8.80;;;4.25;;
56830;SDS011;42713;42.676;23.352;2023-06-05T13:30:28;10.65;;;4.50;;
56830;SDS011;42713;42.676;23.352;2023-06-05T13:32:54;10.52;;;4.28;;
56830;SDS011;42713;42.676;23.352;2023-06-05T13:35:20;11.02;;;4.70;;
56830;SDS011;42713;42.676;23.352;2023-06-05T13:37:46;11.98;;;4.25;;
56830;SDS011;42713;42.676;23.352;2023-06-05T13:40:13;10.45;;;4.18;;
56830;SDS011;42713;42.676;23.352;2023-06-05T13:42:40;11.32;;;4.28;;
56830;SDS011;42713;42.676;23.352;2023-06-05T13:45:06;11.70;;;5.07;;
56830;SDS011;42713;42.676;23.352;2023-06-05T13:47:32;9.30;;;4.38;;
56830;SDS011;42713;42.676;23.352;2023-06-05T13:49:57;8.07;;;4.50;;
56830;SDS011;42713;42.676;23.352;2023-06-05T13:52:23;12.45;;;7.00;;
56830;SDS011;42713;42.676;23.352;2023-06-05T13:54:48;11.18;;;6.10;;
56830;SDS011;42713;42.676;23.352;2023-06-05T13:57:14;16.08;;;9.80;;
56830;SDS011;42713;42.676;23.352;2023-06-05T13:59:41;11.30;;;5.45;;
56830;SDS011;42713;42.676;23.352;2023-06-05T14:02:07;12.52;;;5.00;;
56830;SDS011;42713;42.676;23.352;2023-06-05T14:04:33;8.38;;;3.83;;
56830;SDS011;42713;42.676;23.352;2023-06-05T14:06:58;10.50;;;4.60;;
56830;SDS011;42713;42.676;23.352;2023-06-05T14:09:24;9.43;;;4.40;;
56830;SDS011;42713;42.676;23.352;2023-06-05T14:11:50;9.52;;;3.83;;
56830;SDS011;42713;42.676;23.352;2023-06-05T14:14:15;9.88;;;4.28;;
56830;SDS011;42713;42.676;23.352;2023-06-05T14:16:41;11.73;;;4.32;;
56830;SDS011;42713;42.676;23.352;2023-06-05T14:19:06;12.70;;;4.65;;
56830;SDS011;42713;42.676;23.352;2023-06-05T14:21:35;10.77;;;4.47;;
56830;SDS011;42713;42.676;23.352;2023-06-05T14:24:02;10.88;;;4.82;;
56830;SDS011;42713;42.676;23.352;2023-06-05T14:26:29;15.80;;;4.70;;
56830;SDS011;42713;42.676;23.352;2023-06-05T14:28:54;9.90;;;4.38;;
56830;SDS011;42713;42.676;23.352;2023-06-05T14:31:20;14.25;;;4.53;;
56830;SDS011;42713;42.676;23.352;2023-06-05T14:33:50;9.90;;;4.75;;
56830;SDS011;42713;42.676;23.352;2023-06-05T14:36:17;9.48;;;4.60;;
56830;SDS011;42713;42.676;23.352;2023-06-05T14:38:42;10.40;;;4.43;;
56830;SDS011;42713;42.676;23.352;2023-06-05T14:41:07;15.73;;;4.60;;
56830;SDS011;42713;42.676;23.352;2023-06-05T14:43:33;9.32;;;4.70;;
56830;SDS011;42713;42.676;23.352;2023-06-05T14:45:59;7.88;;;4.38;;
56830;SDS011;42713;42.676;23.352;2023-06-05T14:48:25;7.97;;;4.35;;
56830;SDS011;42713;42.676;23.352;2023-06-05T14:50:51;15.38;;;4.50;;
56830;SDS011;42713;42.676;23.352;2023-06-05T14:53:17;8.65;;;4.43;;
56830;SDS011;42713;42.676;23.352;2023-06-05T14:55:43;9.52;;;4.47;;